sensor_id;sensor_type;location;lat;lon;timestamp;temperature;humidity
13686;DHT22;6915;48.296;8.874;2022-08-03T00:02:18;17.90;99.90
13686;DHT22;6915;48.296;8.874;2022-08-03T00:04:45;17.90;99.90
13686;DHT22;6915;48.296;8.874;2022-08-03T00:07:12;17.90;99.90
13686;DHT22;6915;48.296;8.874;2022-08-03T00:09:39;17.90;99.90
13686;DHT22;6915;48.296;8.874;2022-08-03T00:12:06;17.80;99.90
13686;DHT22;6915;48.296;8.874;2022-08-03T00:14:33;17.70;99.90
13686;DHT22;6915;48.296;8.874;2022-08-03T00:17:02;17.70;99.90
13686;DHT22;6915;48.296;8.874;2022-08-03T00:19:29;17.60;99.90
13686;DHT22;6915;48.296;8.874;2022-08-03T00:21:56;17.70;99.90
13686;DHT22;6915;48.296;8.874;2022-08-03T00:24:23;17.70;99.90
13686;DHT22;6915;48.296;8.874;2022-08-03T00:26:49;17.60;99.90
13686;DHT22;6915;48.296;8.874;2022-08-03T00:29:16;17.60;99.90
13686;DHT22;6915;48.296;8.874;2022-08-03T00:31:43;17.60;99.90
13686;DHT22;6915;48.296;8.874;2022-08-03T00:34:11;17.50;99.90
13686;DHT22;6915;48.296;8.874;2022-08-03T00:36:39;17.50;99.90
13686;DHT22;6915;48.296;8.874;2022-08-03T00:39:06;17.50;99.90
13686;DHT22;6915;48.296;8.874;2022-08-03T00:41:32;17.50;99.90
13686;DHT22;6915;48.296;8.874;2022-08-03T00:43:59;17.40;99.90
13686;DHT22;6915;48.296;8.874;2022-08-03T00:46:26;17.40;99.90
13686;DHT22;6915;48.296;8.874;2022-08-03T00:48:53;17.30;99.90
13686;DHT22;6915;48.296;8.874;2022-08-03T00:51:22;17.20;99.90
13686;DHT22;6915;48.296;8.874;2022-08-03T00:53:50;17.10;99.90
13686;DHT22;6915;48.296;8.874;2022-08-03T00:56:17;17.10;99.90
13686;DHT22;6915;48.296;8.874;2022-08-03T00:58:45;17.10;99.90
13686;DHT22;6915;48.296;8.874;2022-08-03T01:01:14;17.10;99.90
13686;DHT22;6915;48.296;8.874;2022-08-03T01:03:41;17.00;99.90
13686;DHT22;6915;48.296;8.874;2022-08-03T01:06:15;17.00;99.90
13686;DHT22;6915;48.296;8.874;2022-08-03T01:08:50;17.00;99.90
13686;DHT22;6915;48.296;8.874;2022-08-03T01:11:27;17.00;99.90
13686;DHT22;6915;48.296;8.874;2022-08-03T01:14:03;17.00;99.90
13686;DHT22;6915;48.296;8.874;2022-08-03T01:16:37;17.00;99.90
13686;DHT22;6915;48.296;8.874;2022-08-03T01:19:23;16.90;99.90
13686;DHT22;6915;48.296;8.874;2022-08-03T01:22:08;16.90;99.90
13686;DHT22;6915;48.296;8.874;2022-08-03T01:24:45;16.70;99.90
13686;DHT22;6915;48.296;8.874;2022-08-03T01:27:18;16.80;99.90
13686;DHT22;6915;48.296;8.874;2022-08-03T01:29:58;16.80;99.90
13686;DHT22;6915;48.296;8.874;2022-08-03T01:32:33;16.70;99.90
13686;DHT22;6915;48.296;8.874;2022-08-03T01:35:03;16.70;99.90
13686;DHT22;6915;48.296;8.874;2022-08-03T01:37:36;16.60;99.90
13686;DHT22;6915;48.296;8.874;2022-08-03T01:40:04;16.60;99.90
13686;DHT22;6915;48.296;8.874;2022-08-03T01:42:32;16.60;99.90
13686;DHT22;6915;48.296;8.874;2022-08-03T01:45:02;16.60;99.90
13686;DHT22;6915;48.296;8.874;2022-08-03T01:47:30;16.50;99.90
13686;DHT22;6915;48.296;8.874;2022-08-03T01:50:00;16.60;99.90
13686;DHT22;6915;48.296;8.874;2022-08-03T01:52:29;16.50;99.90
13686;DHT22;6915;48.296;8.874;2022-08-03T01:54:57;16.50;99.90
13686;DHT22;6915;48.296;8.874;2022-08-03T01:57:27;16.50;99.90
13686;DHT22;6915;48.296;8.874;2022-08-03T01:59:56;16.40;99.90
13686;DHT22;6915;48.296;8.874;2022-08-03T02:02:26;16.40;99.90
13686;DHT22;6915;48.296;8.874;2022-08-03T02:04:55;16.30;99.90
13686;DHT22;6915;48.296;8.874;2022-08-03T02:07:23;16.30;99.90
13686;DHT22;6915;48.296;8.874;2022-08-03T02:09:51;16.20;99.90
13686;DHT22;6915;48.296;8.874;2022-08-03T02:12:21;16.20;99.90
13686;DHT22;6915;48.296;8.874;2022-08-03T02:14:49;16.20;99.90
13686;DHT22;6915;48.296;8.874;2022-08-03T02:17:18;16.20;99.90
13686;DHT22;6915;48.296;8.874;2022-08-03T02:19:48;16.20;99.90
13686;DHT22;6915;48.296;8.874;2022-08-03T02:22:16;16.20;99.90
13686;DHT22;6915;48.296;8.874;2022-08-03T02:24:43;16.20;99.90
13686;DHT22;6915;48.296;8.874;2022-08-03T02:27:14;16.20;99.90
13686;DHT22;6915;48.296;8.874;2022-08-03T02:29:43;16.10;99.90
13686;DHT22;6915;48.296;8.874;2022-08-03T02:32:16;16.00;99.90
13686;DHT22;6915;48.296;8.874;2022-08-03T02:34:50;16.00;99.90
13686;DHT22;6915;48.296;8.874;2022-08-03T02:37:19;16.00;99.90
13686;DHT22;6915;48.296;8.874;2022-08-03T02:39:48;16.00;99.90
13686;DHT22;6915;48.296;8.874;2022-08-03T02:42:20;16.00;99.90
13686;DHT22;6915;48.296;8.874;2022-08-03T02:44:48;15.90;99.90
13686;DHT22;6915;48.296;8.874;2022-08-03T02:47:18;15.90;99.90
13686;DHT22;6915;48.296;8.874;2022-08-03T02:49:48;15.90;99.90
13686;DHT22;6915;48.296;8.874;2022-08-03T02:52:17;15.80;99.90
13686;DHT22;6915;48.296;8.874;2022-08-03T02:54:45;15.90;99.90
13686;DHT22;6915;48.296;8.874;2022-08-03T02:57:14;15.80;99.90
13686;DHT22;6915;48.296;8.874;2022-08-03T02:59:43;15.90;99.90
13686;DHT22;6915;48.296;8.874;2022-08-03T03:02:11;15.80;99.90
13686;DHT22;6915;48.296;8.874;2022-08-03T03:04:41;15.70;99.90
13686;DHT22;6915;48.296;8.874;2022-08-03T03:07:10;15.70;99.90
13686;DHT22;6915;48.296;8.874;2022-08-03T03:09:38;15.60;99.90
13686;DHT22;6915;48.296;8.874;2022-08-03T03:12:07;15.50;99.90
13686;DHT22;6915;48.296;8.874;2022-08-03T03:14:36;15.50;99.90
13686;DHT22;6915;48.296;8.874;2022-08-03T03:17:04;15.60;99.90
13686;DHT22;6915;48.296;8.874;2022-08-03T03:19:32;15.50;99.90
13686;DHT22;6915;48.296;8.874;2022-08-03T03:22:00;15.60;99.90
13686;DHT22;6915;48.296;8.874;2022-08-03T03:24:29;15.60;99.90
13686;DHT22;6915;48.296;8.874;2022-08-03T03:26:56;15.50;99.90
13686;DHT22;6915;48.296;8.874;2022-08-03T03:29:24;15.50;99.90
13686;DHT22;6915;48.296;8.874;2022-08-03T03:31:51;15.50;99.90
13686;DHT22;6915;48.296;8.874;2022-08-03T03:34:18;15.40;99.90
13686;DHT22;6915;48.296;8.874;2022-08-03T03:36:45;15.40;99.90
13686;DHT22;6915;48.296;8.874;2022-08-03T03:39:12;15.40;99.90
13686;DHT22;6915;48.296;8.874;2022-08-03T03:41:40;15.40;99.90
13686;DHT22;6915;48.296;8.874;2022-08-03T03:44:09;15.40;99.90
13686;DHT22;6915;48.296;8.874;2022-08-03T03:46:36;15.40;99.90
13686;DHT22;6915;48.296;8.874;2022-08-03T03:49:04;15.40;99.90
13686;DHT22;6915;48.296;8.874;2022-08-03T03:51:32;15.30;99.90
13686;DHT22;6915;48.296;8.874;2022-08-03T03:54:00;15.30;99.90
13686;DHT22;6915;48.296;8.874;2022-08-03T03:56:27;15.30;99.90
13686;DHT22;6915;48.296;8.874;2022-08-03T03:58:55;15.30;99.90
13686;DHT22;6915;48.296;8.874;2022-08-03T04:01:22;15.30;99.90
13686;DHT22;6915;48.296;8.874;2022-08-03T04:03:50;15.40;99.90
13686;DHT22;6915;48.296;8.874;2022-08-03T04:06:17;15.30;99.90
13686;DHT22;6915;48.296;8.874;2022-08-03T04:09:02;15.30;99.90
13686;DHT22;6915;48.296;8.874;2022-08-03T04:11:54;15.30;99.90
13686;DHT22;6915;48.296;8.874;2022-08-03T04:14:25;15.30;99.90
13686;DHT22;6915;48.296;8.874;2022-08-03T04:16:56;15.30;99.90
13686;DHT22;6915;48.296;8.874;2022-08-03T04:19:29;15.20;99.90
13686;DHT22;6915;48.296;8.874;2022-08-03T04:21:59;15.30;99.90
13686;DHT22;6915;48.296;8.874;2022-08-03T04:24:29;15.30;99.90
13686;DHT22;6915;48.296;8.874;2022-08-03T04:26:58;15.40;99.90
13686;DHT22;6915;48.296;8.874;2022-08-03T04:29:28;15.40;99.90
13686;DHT22;6915;48.296;8.874;2022-08-03T04:31:57;15.60;99.90
13686;DHT22;6915;48.296;8.874;2022-08-03T04:34:25;16.00;99.90
13686;DHT22;6915;48.296;8.874;2022-08-03T04:36:57;16.60;99.90
13686;DHT22;6915;48.296;8.874;2022-08-03T04:39:26;17.40;99.90
13686;DHT22;6915;48.296;8.874;2022-08-03T04:41:57;18.20;99.90
13686;DHT22;6915;48.296;8.874;2022-08-03T04:44:27;18.70;99.90
13686;DHT22;6915;48.296;8.874;2022-08-03T04:46:55;19.40;32.30
13686;DHT22;6915;48.296;8.874;2022-08-03T04:49:23;19.90;10.30
13686;DHT22;6915;48.296;8.874;2022-08-03T04:51:51;20.40;1.00
13686;DHT22;6915;48.296;8.874;2022-08-03T04:54:18;20.80;1.00
13686;DHT22;6915;48.296;8.874;2022-08-03T04:56:45;21.30;1.00
13686;DHT22;6915;48.296;8.874;2022-08-03T04:59:12;21.70;1.00
13686;DHT22;6915;48.296;8.874;2022-08-03T05:01:40;21.80;1.00
13686;DHT22;6915;48.296;8.874;2022-08-03T05:04:07;22.30;1.00
13686;DHT22;6915;48.296;8.874;2022-08-03T05:06:34;22.60;1.00
13686;DHT22;6915;48.296;8.874;2022-08-03T05:09:02;23.00;1.00
13686;DHT22;6915;48.296;8.874;2022-08-03T05:11:29;23.00;1.00
13686;DHT22;6915;48.296;8.874;2022-08-03T05:13:56;23.60;1.00
13686;DHT22;6915;48.296;8.874;2022-08-03T05:16:23;23.80;1.00
13686;DHT22;6915;48.296;8.874;2022-08-03T05:18:52;24.30;1.00
13686;DHT22;6915;48.296;8.874;2022-08-03T05:21:19;24.30;1.00
13686;DHT22;6915;48.296;8.874;2022-08-03T05:23:46;24.90;1.00
13686;DHT22;6915;48.296;8.874;2022-08-03T05:26:13;24.60;1.00
13686;DHT22;6915;48.296;8.874;2022-08-03T05:28:40;24.80;1.00
13686;DHT22;6915;48.296;8.874;2022-08-03T05:31:06;24.40;1.00
13686;DHT22;6915;48.296;8.874;2022-08-03T05:33:33;24.20;1.00
13686;DHT22;6915;48.296;8.874;2022-08-03T05:36:02;24.00;1.00
13686;DHT22;6915;48.296;8.874;2022-08-03T05:38:29;24.10;1.00
13686;DHT22;6915;48.296;8.874;2022-08-03T05:40:57;24.20;1.00
13686;DHT22;6915;48.296;8.874;2022-08-03T05:43:23;24.50;1.00
13686;DHT22;6915;48.296;8.874;2022-08-03T05:45:50;24.70;1.00
13686;DHT22;6915;48.296;8.874;2022-08-03T05:48:17;25.00;1.00
13686;DHT22;6915;48.296;8.874;2022-08-03T05:50:44;24.90;1.00
13686;DHT22;6915;48.296;8.874;2022-08-03T05:53:12;24.80;1.00
13686;DHT22;6915;48.296;8.874;2022-08-03T05:55:39;24.60;1.00
13686;DHT22;6915;48.296;8.874;2022-08-03T05:58:06;24.50;1.00
13686;DHT22;6915;48.296;8.874;2022-08-03T06:00:33;24.60;1.00
13686;DHT22;6915;48.296;8.874;2022-08-03T06:03:00;24.50;1.00
13686;DHT22;6915;48.296;8.874;2022-08-03T06:05:27;24.70;1.00
13686;DHT22;6915;48.296;8.874;2022-08-03T06:07:54;24.60;1.00
13686;DHT22;6915;48.296;8.874;2022-08-03T06:10:22;24.60;1.00
13686;DHT22;6915;48.296;8.874;2022-08-03T06:12:49;24.50;1.00
13686;DHT22;6915;48.296;8.874;2022-08-03T06:15:17;24.40;1.00
13686;DHT22;6915;48.296;8.874;2022-08-03T06:17:45;24.40;1.00
13686;DHT22;6915;48.296;8.874;2022-08-03T06:20:14;24.30;1.00
13686;DHT22;6915;48.296;8.874;2022-08-03T06:22:41;24.10;1.00
13686;DHT22;6915;48.296;8.874;2022-08-03T06:25:08;24.00;1.00
13686;DHT22;6915;48.296;8.874;2022-08-03T06:27:37;23.90;1.00
13686;DHT22;6915;48.296;8.874;2022-08-03T06:30:06;23.80;1.00
13686;DHT22;6915;48.296;8.874;2022-08-03T06:32:35;23.80;1.00
13686;DHT22;6915;48.296;8.874;2022-08-03T06:35:02;23.90;1.00
13686;DHT22;6915;48.296;8.874;2022-08-03T06:37:29;24.00;1.00
13686;DHT22;6915;48.296;8.874;2022-08-03T06:39:56;24.00;1.00
13686;DHT22;6915;48.296;8.874;2022-08-03T06:42:23;24.20;1.00
13686;DHT22;6915;48.296;8.874;2022-08-03T06:44:51;24.50;1.00
13686;DHT22;6915;48.296;8.874;2022-08-03T06:47:18;24.60;1.00
13686;DHT22;6915;48.296;8.874;2022-08-03T06:49:45;24.70;1.00
13686;DHT22;6915;48.296;8.874;2022-08-03T06:52:12;25.00;1.00
13686;DHT22;6915;48.296;8.874;2022-08-03T06:54:39;25.30;1.00
13686;DHT22;6915;48.296;8.874;2022-08-03T06:57:06;25.50;1.00
13686;DHT22;6915;48.296;8.874;2022-08-03T06:59:36;25.70;1.00
13686;DHT22;6915;48.296;8.874;2022-08-03T07:02:04;25.80;1.00
13686;DHT22;6915;48.296;8.874;2022-08-03T07:04:31;26.10;1.00
13686;DHT22;6915;48.296;8.874;2022-08-03T07:06:59;26.30;1.00
13686;DHT22;6915;48.296;8.874;2022-08-03T07:09:25;26.60;1.00
13686;DHT22;6915;48.296;8.874;2022-08-03T07:11:52;26.50;1.00
13686;DHT22;6915;48.296;8.874;2022-08-03T07:14:19;26.60;1.00
13686;DHT22;6915;48.296;8.874;2022-08-03T07:16:46;26.50;1.00
13686;DHT22;6915;48.296;8.874;2022-08-03T07:19:15;26.70;1.00
13686;DHT22;6915;48.296;8.874;2022-08-03T07:21:41;26.90;1.00
13686;DHT22;6915;48.296;8.874;2022-08-03T07:24:10;26.80;1.00
13686;DHT22;6915;48.296;8.874;2022-08-03T07:26:36;27.00;1.00
13686;DHT22;6915;48.296;8.874;2022-08-03T07:29:03;27.20;1.00
13686;DHT22;6915;48.296;8.874;2022-08-03T07:31:31;27.30;1.00
13686;DHT22;6915;48.296;8.874;2022-08-03T07:33:57;27.40;1.00
13686;DHT22;6915;48.296;8.874;2022-08-03T07:36:26;27.20;1.00
13686;DHT22;6915;48.296;8.874;2022-08-03T07:38:53;27.20;1.00
13686;DHT22;6915;48.296;8.874;2022-08-03T07:41:20;27.20;1.00
13686;DHT22;6915;48.296;8.874;2022-08-03T07:43:47;27.60;1.00
13686;DHT22;6915;48.296;8.874;2022-08-03T07:46:14;27.40;1.00
13686;DHT22;6915;48.296;8.874;2022-08-03T07:48:41;27.50;1.00
13686;DHT22;6915;48.296;8.874;2022-08-03T07:51:08;27.40;1.00
13686;DHT22;6915;48.296;8.874;2022-08-03T07:53:36;27.60;1.00
13686;DHT22;6915;48.296;8.874;2022-08-03T07:56:03;27.60;1.00
13686;DHT22;6915;48.296;8.874;2022-08-03T07:58:30;27.70;1.00
13686;DHT22;6915;48.296;8.874;2022-08-03T08:00:57;27.90;1.00
13686;DHT22;6915;48.296;8.874;2022-08-03T08:03:24;27.90;1.00
13686;DHT22;6915;48.296;8.874;2022-08-03T08:05:51;28.10;1.00
13686;DHT22;6915;48.296;8.874;2022-08-03T08:08:19;28.40;1.00
13686;DHT22;6915;48.296;8.874;2022-08-03T08:10:47;28.80;1.00
13686;DHT22;6915;48.296;8.874;2022-08-03T08:13:14;28.60;1.00
13686;DHT22;6915;48.296;8.874;2022-08-03T08:15:43;28.80;1.00
13686;DHT22;6915;48.296;8.874;2022-08-03T08:18:10;29.00;1.00
13686;DHT22;6915;48.296;8.874;2022-08-03T08:20:37;29.20;1.00
13686;DHT22;6915;48.296;8.874;2022-08-03T08:23:05;29.50;1.00
13686;DHT22;6915;48.296;8.874;2022-08-03T08:25:34;29.50;1.00
13686;DHT22;6915;48.296;8.874;2022-08-03T08:28:02;29.40;1.00
13686;DHT22;6915;48.296;8.874;2022-08-03T08:30:31;29.40;1.00
13686;DHT22;6915;48.296;8.874;2022-08-03T08:32:59;29.90;1.00
13686;DHT22;6915;48.296;8.874;2022-08-03T08:35:26;30.00;1.00
13686;DHT22;6915;48.296;8.874;2022-08-03T08:37:53;30.00;1.00
13686;DHT22;6915;48.296;8.874;2022-08-03T08:40:21;30.10;1.00
13686;DHT22;6915;48.296;8.874;2022-08-03T08:42:48;30.10;1.00
13686;DHT22;6915;48.296;8.874;2022-08-03T08:45:17;29.90;1.00
13686;DHT22;6915;48.296;8.874;2022-08-03T08:47:46;29.80;1.00
13686;DHT22;6915;48.296;8.874;2022-08-03T08:50:17;29.90;1.00
13686;DHT22;6915;48.296;8.874;2022-08-03T08:52:46;30.20;1.00
13686;DHT22;6915;48.296;8.874;2022-08-03T08:55:18;30.20;1.00
13686;DHT22;6915;48.296;8.874;2022-08-03T08:57:48;30.30;1.00
13686;DHT22;6915;48.296;8.874;2022-08-03T09:00:17;30.40;1.00
13686;DHT22;6915;48.296;8.874;2022-08-03T09:02:47;30.70;1.00
13686;DHT22;6915;48.296;8.874;2022-08-03T09:05:16;31.10;1.00
13686;DHT22;6915;48.296;8.874;2022-08-03T09:07:44;31.40;1.00
13686;DHT22;6915;48.296;8.874;2022-08-03T09:10:13;31.50;1.00
13686;DHT22;6915;48.296;8.874;2022-08-03T09:12:45;31.70;1.00
13686;DHT22;6915;48.296;8.874;2022-08-03T09:15:22;31.40;1.00
13686;DHT22;6915;48.296;8.874;2022-08-03T09:17:50;31.30;1.00
13686;DHT22;6915;48.296;8.874;2022-08-03T09:20:18;31.30;1.00
13686;DHT22;6915;48.296;8.874;2022-08-03T09:22:52;31.70;1.00
13686;DHT22;6915;48.296;8.874;2022-08-03T09:25:26;31.80;1.00
13686;DHT22;6915;48.296;8.874;2022-08-03T09:27:53;32.00;1.00
13686;DHT22;6915;48.296;8.874;2022-08-03T09:30:22;32.20;1.00
13686;DHT22;6915;48.296;8.874;2022-08-03T09:32:49;32.00;1.00
13686;DHT22;6915;48.296;8.874;2022-08-03T09:35:16;32.10;1.00
13686;DHT22;6915;48.296;8.874;2022-08-03T09:38:08;32.20;1.00
13686;DHT22;6915;48.296;8.874;2022-08-03T09:40:35;32.50;1.00
13686;DHT22;6915;48.296;8.874;2022-08-03T09:43:02;32.50;1.00
13686;DHT22;6915;48.296;8.874;2022-08-03T09:45:34;32.60;1.00
13686;DHT22;6915;48.296;8.874;2022-08-03T09:48:20;32.60;1.00
13686;DHT22;6915;48.296;8.874;2022-08-03T09:50:48;32.80;1.00
13686;DHT22;6915;48.296;8.874;2022-08-03T09:53:17;32.30;1.00
13686;DHT22;6915;48.296;8.874;2022-08-03T09:55:51;32.40;1.00
13686;DHT22;6915;48.296;8.874;2022-08-03T09:58:20;32.00;1.00
13686;DHT22;6915;48.296;8.874;2022-08-03T10:00:57;31.70;1.00
13686;DHT22;6915;48.296;8.874;2022-08-03T10:03:26;31.70;1.00
13686;DHT22;6915;48.296;8.874;2022-08-03T10:05:53;31.60;1.00
13686;DHT22;6915;48.296;8.874;2022-08-03T10:08:21;31.60;1.00
13686;DHT22;6915;48.296;8.874;2022-08-03T10:10:49;31.70;1.00
13686;DHT22;6915;48.296;8.874;2022-08-03T10:13:19;31.90;1.00
13686;DHT22;6915;48.296;8.874;2022-08-03T10:15:47;32.30;1.00
13686;DHT22;6915;48.296;8.874;2022-08-03T10:18:15;32.50;1.00
13686;DHT22;6915;48.296;8.874;2022-08-03T10:20:45;32.80;1.00
13686;DHT22;6915;48.296;8.874;2022-08-03T10:23:16;32.60;1.00
13686;DHT22;6915;48.296;8.874;2022-08-03T10:25:46;32.50;1.00
13686;DHT22;6915;48.296;8.874;2022-08-03T10:28:15;32.60;1.00
13686;DHT22;6915;48.296;8.874;2022-08-03T10:30:47;32.40;1.00
13686;DHT22;6915;48.296;8.874;2022-08-03T10:33:19;32.30;1.00
13686;DHT22;6915;48.296;8.874;2022-08-03T10:35:51;32.50;1.00
13686;DHT22;6915;48.296;8.874;2022-08-03T10:38:21;32.80;1.00
13686;DHT22;6915;48.296;8.874;2022-08-03T10:40:53;32.60;1.00
13686;DHT22;6915;48.296;8.874;2022-08-03T10:43:24;32.50;1.00
13686;DHT22;6915;48.296;8.874;2022-08-03T10:45:51;32.80;1.00
13686;DHT22;6915;48.296;8.874;2022-08-03T10:48:20;33.00;1.00
13686;DHT22;6915;48.296;8.874;2022-08-03T10:50:48;33.40;1.00
13686;DHT22;6915;48.296;8.874;2022-08-03T10:53:33;33.80;1.00
13686;DHT22;6915;48.296;8.874;2022-08-03T10:56:01;33.80;1.00
13686;DHT22;6915;48.296;8.874;2022-08-03T10:58:47;33.90;1.00
13686;DHT22;6915;48.296;8.874;2022-08-03T11:01:15;34.10;1.00
13686;DHT22;6915;48.296;8.874;2022-08-03T11:04:16;34.40;1.00
13686;DHT22;6915;48.296;8.874;2022-08-03T11:06:44;34.10;1.00
13686;DHT22;6915;48.296;8.874;2022-08-03T11:09:17;33.90;1.00
13686;DHT22;6915;48.296;8.874;2022-08-03T11:11:46;33.90;1.00
13686;DHT22;6915;48.296;8.874;2022-08-03T11:14:16;34.00;1.00
13686;DHT22;6915;48.296;8.874;2022-08-03T11:16:46;33.60;1.00
13686;DHT22;6915;48.296;8.874;2022-08-03T11:19:16;33.50;1.00
13686;DHT22;6915;48.296;8.874;2022-08-03T11:21:57;33.60;1.00
13686;DHT22;6915;48.296;8.874;2022-08-03T11:25:01;33.80;1.00
13686;DHT22;6915;48.296;8.874;2022-08-03T11:27:31;34.30;1.00
13686;DHT22;6915;48.296;8.874;2022-08-03T11:30:00;34.30;1.00
13686;DHT22;6915;48.296;8.874;2022-08-03T11:32:49;34.60;1.00
13686;DHT22;6915;48.296;8.874;2022-08-03T11:35:20;34.50;1.00
13686;DHT22;6915;48.296;8.874;2022-08-03T11:38:09;34.30;1.00
13686;DHT22;6915;48.296;8.874;2022-08-03T11:40:41;34.30;1.00
13686;DHT22;6915;48.296;8.874;2022-08-03T11:45:57;33.80;1.00
13686;DHT22;6915;48.296;8.874;2022-08-03T11:48:27;33.40;1.00
13686;DHT22;6915;48.296;8.874;2022-08-03T11:50:56;33.30;1.00
13686;DHT22;6915;48.296;8.874;2022-08-03T11:53:23;33.10;1.00
13686;DHT22;6915;48.296;8.874;2022-08-03T11:55:50;32.90;1.00
13686;DHT22;6915;48.296;8.874;2022-08-03T11:58:20;33.40;1.00
13686;DHT22;6915;48.296;8.874;2022-08-03T12:00:47;33.90;1.00
13686;DHT22;6915;48.296;8.874;2022-08-03T12:03:16;34.20;1.00
13686;DHT22;6915;48.296;8.874;2022-08-03T12:05:45;34.40;1.00
13686;DHT22;6915;48.296;8.874;2022-08-03T12:08:16;34.00;1.00
13686;DHT22;6915;48.296;8.874;2022-08-03T12:10:48;33.80;1.00
13686;DHT22;6915;48.296;8.874;2022-08-03T12:13:16;34.10;1.00
13686;DHT22;6915;48.296;8.874;2022-08-03T12:15:50;34.60;1.00
13686;DHT22;6915;48.296;8.874;2022-08-03T12:18:18;34.90;1.00
13686;DHT22;6915;48.296;8.874;2022-08-03T12:20:47;34.90;1.00
13686;DHT22;6915;48.296;8.874;2022-08-03T12:23:16;35.20;1.00
13686;DHT22;6915;48.296;8.874;2022-08-03T12:25:44;35.30;1.00
13686;DHT22;6915;48.296;8.874;2022-08-03T12:28:14;35.20;1.00
13686;DHT22;6915;48.296;8.874;2022-08-03T12:30:45;35.10;1.00
13686;DHT22;6915;48.296;8.874;2022-08-03T12:33:23;35.00;1.00
13686;DHT22;6915;48.296;8.874;2022-08-03T12:36:03;34.50;1.00
13686;DHT22;6915;48.296;8.874;2022-08-03T12:38:33;34.40;1.00
13686;DHT22;6915;48.296;8.874;2022-08-03T12:41:03;34.80;1.00
13686;DHT22;6915;48.296;8.874;2022-08-03T12:43:30;35.20;1.00
13686;DHT22;6915;48.296;8.874;2022-08-03T12:46:11;35.50;1.00
13686;DHT22;6915;48.296;8.874;2022-08-03T12:49:05;35.30;1.00
13686;DHT22;6915;48.296;8.874;2022-08-03T12:51:34;35.50;1.00
13686;DHT22;6915;48.296;8.874;2022-08-03T12:54:03;35.50;1.00
13686;DHT22;6915;48.296;8.874;2022-08-03T12:56:30;35.60;1.00
13686;DHT22;6915;48.296;8.874;2022-08-03T12:58:59;35.50;1.00
13686;DHT22;6915;48.296;8.874;2022-08-03T13:01:26;35.60;1.00
13686;DHT22;6915;48.296;8.874;2022-08-03T13:04:01;35.40;1.00
13686;DHT22;6915;48.296;8.874;2022-08-03T13:06:30;35.00;1.00
13686;DHT22;6915;48.296;8.874;2022-08-03T13:09:05;34.50;1.00
13686;DHT22;6915;48.296;8.874;2022-08-03T13:11:33;34.40;1.00
13686;DHT22;6915;48.296;8.874;2022-08-03T13:14:00;34.50;1.00
13686;DHT22;6915;48.296;8.874;2022-08-03T13:16:28;34.90;1.00
13686;DHT22;6915;48.296;8.874;2022-08-03T13:18:56;34.70;1.00
13686;DHT22;6915;48.296;8.874;2022-08-03T13:21:23;34.30;1.00
13686;DHT22;6915;48.296;8.874;2022-08-03T13:23:50;34.30;1.00
13686;DHT22;6915;48.296;8.874;2022-08-03T13:26:19;34.50;1.00
13686;DHT22;6915;48.296;8.874;2022-08-03T13:28:46;34.90;1.00
13686;DHT22;6915;48.296;8.874;2022-08-03T13:31:13;35.10;1.00
13686;DHT22;6915;48.296;8.874;2022-08-03T13:33:40;35.20;1.00
13686;DHT22;6915;48.296;8.874;2022-08-03T13:36:07;35.60;1.00
13686;DHT22;6915;48.296;8.874;2022-08-03T13:38:34;35.20;1.00
13686;DHT22;6915;48.296;8.874;2022-08-03T13:41:01;35.10;1.00
13686;DHT22;6915;48.296;8.874;2022-08-03T13:43:30;34.50;1.00
13686;DHT22;6915;48.296;8.874;2022-08-03T13:45:57;34.60;1.00
13686;DHT22;6915;48.296;8.874;2022-08-03T13:48:24;34.50;1.00
13686;DHT22;6915;48.296;8.874;2022-08-03T13:50:51;34.20;1.00
13686;DHT22;6915;48.296;8.874;2022-08-03T13:53:18;34.30;1.00
13686;DHT22;6915;48.296;8.874;2022-08-03T13:55:45;34.50;1.00
13686;DHT22;6915;48.296;8.874;2022-08-03T13:58:12;34.60;1.00
13686;DHT22;6915;48.296;8.874;2022-08-03T14:00:40;34.80;1.00
13686;DHT22;6915;48.296;8.874;2022-08-03T14:03:08;34.80;1.00
13686;DHT22;6915;48.296;8.874;2022-08-03T14:05:35;34.50;1.00
13686;DHT22;6915;48.296;8.874;2022-08-03T14:08:04;34.50;1.00
13686;DHT22;6915;48.296;8.874;2022-08-03T14:10:35;34.50;1.00
13686;DHT22;6915;48.296;8.874;2022-08-03T14:13:02;34.20;1.00
13686;DHT22;6915;48.296;8.874;2022-08-03T14:15:30;34.10;1.00
13686;DHT22;6915;48.296;8.874;2022-08-03T14:17:58;34.20;1.00
13686;DHT22;6915;48.296;8.874;2022-08-03T14:20:25;34.60;1.00
13686;DHT22;6915;48.296;8.874;2022-08-03T14:22:53;34.70;1.00
13686;DHT22;6915;48.296;8.874;2022-08-03T14:25:20;34.70;1.00
13686;DHT22;6915;48.296;8.874;2022-08-03T14:27:47;34.70;1.00
13686;DHT22;6915;48.296;8.874;2022-08-03T14:30:14;35.00;1.00
13686;DHT22;6915;48.296;8.874;2022-08-03T14:32:41;34.90;1.00
13686;DHT22;6915;48.296;8.874;2022-08-03T14:35:10;34.80;1.00
13686;DHT22;6915;48.296;8.874;2022-08-03T14:37:37;34.60;1.00
13686;DHT22;6915;48.296;8.874;2022-08-03T14:40:05;34.10;1.00
13686;DHT22;6915;48.296;8.874;2022-08-03T14:42:32;33.90;1.00
13686;DHT22;6915;48.296;8.874;2022-08-03T14:44:59;34.00;1.00
13686;DHT22;6915;48.296;8.874;2022-08-03T14:47:26;34.10;1.00
13686;DHT22;6915;48.296;8.874;2022-08-03T14:49:53;34.30;1.00
13686;DHT22;6915;48.296;8.874;2022-08-03T14:52:21;34.50;1.00
13686;DHT22;6915;48.296;8.874;2022-08-03T14:54:48;34.30;1.00
13686;DHT22;6915;48.296;8.874;2022-08-03T14:57:15;34.20;1.00
13686;DHT22;6915;48.296;8.874;2022-08-03T14:59:42;34.30;1.00
13686;DHT22;6915;48.296;8.874;2022-08-03T15:02:09;34.20;1.00
13686;DHT22;6915;48.296;8.874;2022-08-03T15:04:36;34.10;1.00
13686;DHT22;6915;48.296;8.874;2022-08-03T15:07:03;34.40;1.00
13686;DHT22;6915;48.296;8.874;2022-08-03T15:09:32;34.50;1.00
13686;DHT22;6915;48.296;8.874;2022-08-03T15:11:59;34.30;1.00
13686;DHT22;6915;48.296;8.874;2022-08-03T15:14:26;34.50;1.00
13686;DHT22;6915;48.296;8.874;2022-08-03T15:16:53;34.70;1.00
13686;DHT22;6915;48.296;8.874;2022-08-03T15:19:20;34.90;1.00
13686;DHT22;6915;48.296;8.874;2022-08-03T15:21:47;35.10;1.00
13686;DHT22;6915;48.296;8.874;2022-08-03T15:24:14;35.40;1.00
13686;DHT22;6915;48.296;8.874;2022-08-03T15:26:43;35.60;1.00
13686;DHT22;6915;48.296;8.874;2022-08-03T15:29:10;36.00;1.00
13686;DHT22;6915;48.296;8.874;2022-08-03T15:31:38;36.20;1.00
13686;DHT22;6915;48.296;8.874;2022-08-03T15:34:05;36.50;1.00
13686;DHT22;6915;48.296;8.874;2022-08-03T15:36:32;36.40;1.00
13686;DHT22;6915;48.296;8.874;2022-08-03T15:38:59;36.40;1.00
13686;DHT22;6915;48.296;8.874;2022-08-03T15:41:26;36.50;1.00
13686;DHT22;6915;48.296;8.874;2022-08-03T15:43:54;36.50;1.00
13686;DHT22;6915;48.296;8.874;2022-08-03T15:46:22;36.10;1.00
13686;DHT22;6915;48.296;8.874;2022-08-03T15:48:49;35.90;1.00
13686;DHT22;6915;48.296;8.874;2022-08-03T15:51:16;36.00;1.00
13686;DHT22;6915;48.296;8.874;2022-08-03T15:53:43;35.60;1.00
13686;DHT22;6915;48.296;8.874;2022-08-03T15:56:10;35.20;1.00
13686;DHT22;6915;48.296;8.874;2022-08-03T15:58:37;35.50;1.00
13686;DHT22;6915;48.296;8.874;2022-08-03T16:01:06;35.90;1.00
13686;DHT22;6915;48.296;8.874;2022-08-03T16:03:34;36.10;1.00
13686;DHT22;6915;48.296;8.874;2022-08-03T16:06:02;36.00;1.00
13686;DHT22;6915;48.296;8.874;2022-08-03T16:08:29;35.90;1.00
13686;DHT22;6915;48.296;8.874;2022-08-03T16:10:57;35.80;1.00
13686;DHT22;6915;48.296;8.874;2022-08-03T16:13:24;35.90;1.00